Time,TemperatureF,DewpointF,PressureIn,WindDirection,WindDirectionDegrees,WindSpeedMPH,WindSpeedGustMPH,Humidity,HourlyPrecipIn,Conditions,Clouds,dailyrainin,SoftwareType,DateUTC
2013-08-24 00:29:00,64.7,54.7,29.80,North,4,0.0,7.0,70,0.00,CLR,,0.00,WeatherDisplay:10.37,2013-08-24 05:29:00,
2013-08-24 00:59:00,64.8,54.4,29.80,SSW,206,0.0,7.0,69,0.00,CLR,,0.00,WeatherDisplay:10.37,2013-08-24 05:59:00,
2013-08-24 01:30:00,64.5,54.1,29.89,SE,144,5.0,12.0,69,0.00,CLR,,0.00,WeatherDisplay:10.37,2013-08-24 06:30:00,
2013-08-24 02:00:00,64.5,54.5,29.89,SW,214,2.0,13.0,70,0.00,CLR,,0.00,WeatherDisplay:10.37,2013-08-24 07:00:00,
2013-08-24 02:30:00,63.9,53.9,29.89,East,81,5.0,12.0,70,0.00,CLR,,0.00,WeatherDisplay:10.37,2013-08-24 07:30:00,
2013-08-24 03:00:00,64.6,53.4,29.89,NE,42,3.0,14.0,67,0.00,CLR,,0.00,WeatherDisplay:10.37,2013-08-24 08:00:00,
2013-08-24 03:30:00,65.5,54.3,29.87,SW,215,5.0,18.0,67,0.00,CLR,,0.00,WeatherDisplay:10.37,2013-08-24 08:30:00,
2013-08-24 04:00:00,65.5,53.8,29.87,ESE,118,2.0,18.0,66,0.00,CLR,,0.00,WeatherDisplay:10.37,2013-08-24 09:00:00,
2013-08-24 04:30:00,65.2,53.1,29.85,ENE,57,5.0,12.0,65,0.00,CLR,,0.00,WeatherDisplay:10.37,2013-08-24 09:30:00,
2013-08-24 05:00:00,65.3,53.2,29.85,SSE,161,5.0,13.0,65,0.00,CLR,,0.00,WeatherDisplay:10.37,2013-08-24 10:00:00,
2013-08-24 05:30:00,64.5,53.3,29.84,SSW,210,6.0,13.0,67,0.00,CLR,,0.00,WeatherDisplay:10.37,2013-08-24 10:30:00,
2013-08-24 06:00:00,65.5,53.8,29.83,WSW,249,6.0,16.0,66,0.00,CLR,,0.00,WeatherDisplay:10.37,2013-08-24 11:00:00,
2013-08-24 06:30:00,65.3,54.1,29.84,SW,225,2.0,18.0,67,0.00,CLR,,0.00,WeatherDisplay:10.37,2013-08-24 11:30:00,
2013-08-24 07:00:00,65.2,54.4,29.85,South,191,1.0,12.0,68,0.00,CLR,,0.00,WeatherDisplay:10.37,2013-08-24 12:00:00,
2013-08-24 07:30:00,65.0,54.2,29.87,West,281,1.0,10.0,68,0.00,CLR,,0.00,WeatherDisplay:10.37,2013-08-24 12:30:00,
2013-08-24 08:00:00,64.4,54.4,29.89,West,277,0.0,5.0,70,0.00,CLR,,0.00,WeatherDisplay:10.37,2013-08-24 13:00:00,
2013-08-24 08:30:00,64.8,54.8,29.90,ENE,67,2.0,12.0,70,0.00,CLR,,0.00,WeatherDisplay:10.37,2013-08-24 13:30:00,
2013-08-24 09:00:00,64.5,55.3,29.91,NE,46,0.0,13.0,72,0.00,CLR,,0.00,WeatherDisplay:10.37,2013-08-24 14:00:00,
2013-08-24 09:30:00,65.0,55.8,29.91,NE,54,0.0,7.0,72,0.00,CLR,,0.00,WeatherDisplay:10.37,2013-08-24 14:30:00,
2013-08-24 10:00:00,67.9,56.5,29.90,SSE,147,5.0,12.0,67,0.00,CLR,,0.00,WeatherDisplay:10.37,2013-08-24 15:00:00,
2013-08-24 10:30:00,69.0,56.3,29.89,East,91,7.0,12.0,64,0.00,CLR,,0.00,WeatherDisplay:10.37,2013-08-24 15:30:00,
2013-08-24 11:00:00,69.6,56.9,29.89,ESE,118,1.0,12.0,64,0.00,CLR,,0.00,WeatherDisplay:10.37,2013-08-24 16:00:00,
2013-08-24 11:30:00,71.8,57.2,29.89,South,180,3.0,17.0,60,0.00,CLR,,0.00,WeatherDisplay:10.37,2013-08-24 16:30:00,
2013-08-24 12:00:00,73.2,55.6,29.88,ESE,121,5.0,12.0,54,0.00,CLR,,0.00,WeatherDisplay:10.37,2013-08-24 17:00:00,
2013-08-24 12:30:00,74.3,55.0,29.88,East,88,5.0,14.0,51,0.00,CLR,,0.00,WeatherDisplay:10.37,2013-08-24 17:30:00,
2013-08-24 13:00:00,74.2,54.4,29.87,SSE,168,2.0,12.0,50,0.00,CLR,,0.00,WeatherDisplay:10.37,2013-08-24 18:00:00,
2013-08-24 13:30:00,75.6,54.5,29.85,SE,124,3.0,14.0,48,0.00,CLR,,0.00,WeatherDisplay:10.37,2013-08-24 18:30:00,
2013-08-24 14:00:00,76.1,53.8,29.84,ESE,115,0.0,12.0,46,0.00,CLR,,0.00,WeatherDisplay:10.37,2013-08-24 19:00:00,
2013-08-24 14:30:00,77.4,54.4,29.82,SE,126,5.0,12.0,45,0.00,CLR,,0.00,WeatherDisplay:10.37,2013-08-24 19:30:00,
2013-08-24 14:59:00,78.1,52.4,29.81,East,96,3.0,14.0,41,0.00,CLR,,0.00,WeatherDisplay:10.37,2013-08-24 19:59:00,
2013-08-24 15:29:00,78.3,52.7,29.81,South,170,3.0,12.0,41,0.00,CLR,,0.00,WeatherDisplay:10.37,2013-08-24 20:29:00,
2013-08-24 15:59:00,76.7,53.1,29.80,ENE,73,5.0,16.0,44,0.00,CLR,,0.00,WeatherDisplay:10.37,2013-08-24 20:59:00,
2013-08-24 16:29:00,78.5,52.8,29.79,ESE,116,3.0,16.0,41,0.00,CLR,,0.00,WeatherDisplay:10.37,2013-08-24 21:29:00,
2013-08-24 16:59:00,77.4,52.5,29.79,ENE,72,3.0,16.0,42,0.00,CLR,,0.00,WeatherDisplay:10.37,2013-08-24 21:59:00,
2013-08-24 17:29:00,77.8,52.2,29.78,East,100,7.0,14.0,41,0.00,CLR,,0.00,WeatherDisplay:10.37,2013-08-24 22:29:00,
2013-08-24 17:59:00,78.6,51.6,29.76,ESE,103,6.0,13.0,39,0.00,CLR,,0.00,WeatherDisplay:10.37,2013-08-24 22:59:00,
2013-08-24 18:29:00,75.8,51.1,29.79,East,101,6.0,14.0,42,0.00,CLR,,0.00,WeatherDisplay:10.37,2013-08-24 23:29:00,
2013-08-24 18:59:00,76.6,51.2,29.77,East,93,5.0,16.0,41,0.00,CLR,,0.00,WeatherDisplay:10.37,2013-08-24 23:59:00,
2013-08-24 19:29:00,74.9,50.9,29.78,East,99,2.0,12.0,43,0.00,CLR,,0.00,WeatherDisplay:10.37,2013-08-25 00:29:00,
2013-08-24 19:59:00,73.9,50.0,29.81,ENE,77,3.0,12.0,43,0.00,CLR,,0.00,WeatherDisplay:10.37,2013-08-25 00:59:00,
2013-08-24 20:29:00,72.5,49.9,29.82,ESE,104,3.0,13.0,45,0.00,CLR,,0.00,WeatherDisplay:10.37,2013-08-25 01:29:00,
2013-08-24 20:59:00,72.0,50.1,29.84,SE,135,5.0,12.0,46,0.00,CLR,,0.00,WeatherDisplay:10.37,2013-08-25 01:59:00,
2013-08-24 21:29:00,71.1,50.9,29.83,ENE,75,5.0,12.0,49,0.00,CLR,,0.00,WeatherDisplay:10.37,2013-08-25 02:29:00,
2013-08-24 21:59:00,70.4,50.9,29.85,East,79,5.0,14.0,50,0.00,CLR,,0.00,WeatherDisplay:10.37,2013-08-25 02:59:00,
2013-08-24 22:29:00,69.7,50.7,29.86,ENE,69,3.0,14.0,51,0.00,CLR,,0.00,WeatherDisplay:10.37,2013-08-25 03:29:00,
2013-08-24 22:59:00,68.4,51.1,29.87,NNE,29,3.0,17.0,54,0.00,CLR,,0.00,WeatherDisplay:10.37,2013-08-25 03:59:00,
2013-08-24 23:29:00,67.6,50.9,29.86,NE,44,2.0,10.0,55,0.00,CLR,,0.00,WeatherDisplay:10.37,2013-08-25 04:29:00,
2013-08-24 23:59:00,67.1,50.9,29.88,North,11,1.0,8.0,56,0.00,CLR,,0.00,WeatherDisplay:10.37,2013-08-25 04:59:00,